createdAt,value
2022-10-21T00:00:26.047Z,1.80
2022-10-21T00:02:52.867Z,1.97
2022-10-21T00:05:19.600Z,3.07
2022-10-21T00:07:46.345Z,1.60
2022-10-21T00:10:13.606Z,1.90
2022-10-21T00:12:40.729Z,1.93
2022-10-21T00:15:08.934Z,2.10
2022-10-21T00:17:40.145Z,1.67
2022-10-21T00:20:09.383Z,1.80
2022-10-21T00:22:36.866Z,2.13
2022-10-21T00:25:04.763Z,1.90
2022-10-21T00:27:31.546Z,1.97
2022-10-21T00:29:58.303Z,1.60
2022-10-21T00:32:25.191Z,1.50
2022-10-21T00:34:52.038Z,1.97
2022-10-21T00:37:18.775Z,1.70
2022-10-21T00:39:45.610Z,1.30
2022-10-21T00:42:21.388Z,1.73
2022-10-21T00:45:06.722Z,1.60
2022-10-21T00:47:43.673Z,1.80
2022-10-21T00:50:21.413Z,1.50
2022-10-21T00:52:48.557Z,1.80
2022-10-21T00:55:15.328Z,1.70
2022-10-21T00:57:42.919Z,1.80
2022-10-21T01:00:10.129Z,1.87
2022-10-21T01:02:37.089Z,1.90
2022-10-21T01:05:04.753Z,1.60
2022-10-21T01:07:31.857Z,1.97
2022-10-21T01:09:58.617Z,1.53
2022-10-21T01:12:33.588Z,2.27
2022-10-21T01:15:09.222Z,1.43
2022-10-21T01:17:50.459Z,1.67
2022-10-21T01:20:32.665Z,1.57
2022-10-21T01:23:37.213Z,1.93
2022-10-21T01:26:09.977Z,2.20
2022-10-21T01:28:36.733Z,2.00
2022-10-21T01:31:15.659Z,1.80
2022-10-21T01:33:47.631Z,1.40
2022-10-21T01:36:29.608Z,2.00
2022-10-21T01:39:15.001Z,1.50
2022-10-21T01:41:43.930Z,1.97
2022-10-21T01:44:15.953Z,1.30
2022-10-21T01:46:44.439Z,1.67
2022-10-21T01:49:18.520Z,1.80
2022-10-21T01:51:45.549Z,1.73
2022-10-21T01:54:17.194Z,2.40
2022-10-21T01:56:44.563Z,1.63
2022-10-21T01:59:11.677Z,1.70
2022-10-21T02:01:39.184Z,1.77
2022-10-21T02:04:07.513Z,1.43
2022-10-21T02:06:34.292Z,1.60
2022-10-21T02:09:01.254Z,1.97
2022-10-21T02:11:28.975Z,1.57
2022-10-21T02:14:07.195Z,1.87
2022-10-21T02:16:37.519Z,1.63
2022-10-21T02:19:04.696Z,1.50
2022-10-21T02:21:35.575Z,1.67
2022-10-21T02:24:16.377Z,1.90
2022-10-21T02:26:43.400Z,1.30
2022-10-21T02:29:11.178Z,1.30
2022-10-21T02:32:09.568Z,1.27
2022-10-21T02:34:48.841Z,1.57
2022-10-21T02:40:15.356Z,1.40
2022-10-21T02:42:49.833Z,1.53
2022-10-21T02:45:18.027Z,1.70
2022-10-21T02:47:44.939Z,1.30
2022-10-21T02:50:12.965Z,1.30
2022-10-21T02:52:39.683Z,1.50
2022-10-21T02:55:06.751Z,1.60
2022-10-21T02:57:33.453Z,1.30
2022-10-21T03:00:00.191Z,1.47
2022-10-21T03:02:27.100Z,1.53
2022-10-21T03:04:53.749Z,1.50
2022-10-21T03:07:20.525Z,1.77
2022-10-21T03:09:47.281Z,1.60
2022-10-21T03:12:14.454Z,1.50
2022-10-21T03:14:41.311Z,1.30
2022-10-21T03:17:07.972Z,1.40
2022-10-21T03:19:34.692Z,1.57
2022-10-21T03:22:01.706Z,1.60
2022-10-21T03:24:29.156Z,1.40
2022-10-21T03:26:56.584Z,1.63
2022-10-21T03:29:23.834Z,1.33
2022-10-21T03:31:50.474Z,1.40
2022-10-21T03:34:17.558Z,1.53
2022-10-21T03:36:44.523Z,1.40
2022-10-21T03:39:12.039Z,1.50
2022-10-21T03:41:39.009Z,1.77
2022-10-21T03:44:05.897Z,1.80
2022-10-21T03:46:32.679Z,1.50
2022-10-21T03:49:03.027Z,1.23
2022-10-21T03:51:31.657Z,1.60
2022-10-21T03:53:58.575Z,1.20
2022-10-21T03:56:25.294Z,1.47
2022-10-21T03:58:56.260Z,1.33
2022-10-21T04:01:25.766Z,1.30
2022-10-21T04:03:52.612Z,1.07
2022-10-21T04:06:19.340Z,1.13
2022-10-21T04:08:46.215Z,1.40
2022-10-21T04:11:12.962Z,1.67
2022-10-21T04:13:39.694Z,1.67
2022-10-21T04:16:08.385Z,1.50
2022-10-21T04:18:35.309Z,1.67
2022-10-21T04:21:02.120Z,1.20
2022-10-21T04:23:29.083Z,1.50
2022-10-21T04:25:55.794Z,1.50
2022-10-21T04:28:22.640Z,1.87
2022-10-21T04:30:50.511Z,1.50
2022-10-21T04:33:17.430Z,1.20
2022-10-21T04:35:44.243Z,1.37
2022-10-21T04:38:11.047Z,1.30
2022-10-21T04:40:37.803Z,1.40
2022-10-21T04:43:04.629Z,1.33
2022-10-21T04:45:31.476Z,1.40
2022-10-21T04:47:58.213Z,1.20
2022-10-21T04:50:24.973Z,1.10
2022-10-21T04:52:52.004Z,1.67
2022-10-21T04:55:18.736Z,1.80
2022-10-21T04:57:46.098Z,1.53
2022-10-21T05:00:13.271Z,1.70
2022-10-21T05:02:40.736Z,1.40
2022-10-21T05:05:08.224Z,1.50
2022-10-21T05:07:35.141Z,2.03
2022-10-21T05:10:01.821Z,1.60
2022-10-21T05:12:28.985Z,1.30
2022-10-21T05:14:55.846Z,1.40
2022-10-21T05:17:22.790Z,2.57
2022-10-21T05:19:49.415Z,1.40
2022-10-21T05:22:16.271Z,1.70
2022-10-21T05:24:42.979Z,1.50
2022-10-21T05:27:09.661Z,1.60
2022-10-21T05:29:36.432Z,1.50
2022-10-21T05:32:03.744Z,1.73
2022-10-21T05:34:30.640Z,1.93
2022-10-21T05:36:57.455Z,1.80
2022-10-21T05:39:24.288Z,3.03
2022-10-21T05:41:51.132Z,2.20
2022-10-21T05:44:17.981Z,2.00
2022-10-21T05:46:44.917Z,1.83
2022-10-21T05:49:12.848Z,1.93
2022-10-21T05:51:39.716Z,2.00
2022-10-21T05:54:06.672Z,1.83
2022-10-21T05:56:33.407Z,2.07
2022-10-21T05:59:00.147Z,1.97
2022-10-21T06:01:27.736Z,2.00
2022-10-21T06:03:54.755Z,2.00
2022-10-21T06:06:21.965Z,1.83
2022-10-21T06:08:49.128Z,2.37
2022-10-21T06:11:18.485Z,1.90
2022-10-21T06:13:46.113Z,1.63
2022-10-21T06:16:13.570Z,2.60
2022-10-21T06:18:41.054Z,2.90
2022-10-21T06:21:08.448Z,2.20
2022-10-21T06:23:35.421Z,2.50
2022-10-21T06:26:05.493Z,2.10
2022-10-21T06:28:34.163Z,2.30
2022-10-21T06:31:01.651Z,2.23
2022-10-21T06:33:34.213Z,2.53
2022-10-21T06:36:01.049Z,2.10
2022-10-21T06:38:27.824Z,2.63
2022-10-21T06:41:01.614Z,3.50
2022-10-21T06:43:28.563Z,4.37
2022-10-21T06:46:10.345Z,5.00
2022-10-21T06:48:37.431Z,3.60
2022-10-21T06:51:09.713Z,2.90
2022-10-21T06:53:39.228Z,3.30
2022-10-21T06:56:11.800Z,3.73
2022-10-21T06:58:40.040Z,3.00
2022-10-21T07:01:21.444Z,2.97
2022-10-21T07:03:58.175Z,3.20
2022-10-21T07:06:24.921Z,2.77
2022-10-21T07:08:58.884Z,2.90
2022-10-21T07:11:27.222Z,2.73
2022-10-21T07:13:54.504Z,2.80
2022-10-21T07:16:27.287Z,2.63
2022-10-21T07:18:55.158Z,2.77
2022-10-21T07:21:29.060Z,3.70
2022-10-21T07:23:59.226Z,3.30
2022-10-21T07:26:28.184Z,2.47
2022-10-21T07:28:58.016Z,2.87
2022-10-21T07:31:24.669Z,2.70
2022-10-21T07:33:51.567Z,2.70
2022-10-21T07:36:24.870Z,2.50
2022-10-21T07:38:52.983Z,2.23
2022-10-21T07:41:23.549Z,2.97
2022-10-21T07:43:51.218Z,3.20
2022-10-21T07:46:21.867Z,4.43
2022-10-21T07:48:49.187Z,2.97
2022-10-21T07:51:19.365Z,2.77
2022-10-21T07:53:46.567Z,3.17
2022-10-21T07:56:15.876Z,2.50
2022-10-21T07:58:43.571Z,2.77
2022-10-21T08:01:11.213Z,3.20
2022-10-21T08:03:38.917Z,3.53
2022-10-21T08:06:07.310Z,3.00
2022-10-21T08:08:37.157Z,3.20
2022-10-21T08:11:04.810Z,2.93
2022-10-21T08:13:32.094Z,2.80
2022-10-21T08:16:06.980Z,3.03
2022-10-21T08:18:39.269Z,3.30
2022-10-21T08:21:08.079Z,2.37
2022-10-21T08:23:35.918Z,2.63
2022-10-21T08:26:03.149Z,2.73
2022-10-21T08:28:31.752Z,2.73
2022-10-21T08:31:07.045Z,2.80
2022-10-21T08:33:48.082Z,2.83
2022-10-21T08:36:22.108Z,2.40
2022-10-21T08:38:49.803Z,2.57
2022-10-21T08:41:28.809Z,3.07
2022-10-21T08:44:05.885Z,2.80
2022-10-21T08:46:54.848Z,2.53
2022-10-21T08:49:30.999Z,3.60
2022-10-21T08:52:13.642Z,2.47
2022-10-21T08:54:45.175Z,2.77
2022-10-21T08:57:12.476Z,1.73
2022-10-21T08:59:48.916Z,1.83
2022-10-21T09:02:55.421Z,1.63
2022-10-21T09:05:43.096Z,1.27
2022-10-21T09:08:23.536Z,1.37
2022-10-21T09:11:04.631Z,1.50
2022-10-21T09:14:00.691Z,1.63
2022-10-21T09:16:40.872Z,1.13
2022-10-21T09:19:19.948Z,1.10
2022-10-21T09:22:34.935Z,0.93
2022-10-21T09:25:19.242Z,1.20
2022-10-21T09:28:02.321Z,0.90
2022-10-21T09:30:29.648Z,0.97
2022-10-21T09:33:00.419Z,0.77
2022-10-21T09:35:40.728Z,0.87
2022-10-21T09:38:15.410Z,0.87
2022-10-21T09:40:49.169Z,0.80
2022-10-21T09:43:27.345Z,0.80
2022-10-21T09:45:54.621Z,0.80
2022-10-21T09:48:41.739Z,1.30
2022-10-21T09:51:32.830Z,1.00
2022-10-21T09:54:08.167Z,0.70
2022-10-21T09:56:46.880Z,0.87
2022-10-21T09:59:17.094Z,0.70
2022-10-21T10:01:49.018Z,0.70
2022-10-21T10:04:42.247Z,0.80
2022-10-21T10:07:27.934Z,0.80
2022-10-21T10:09:54.905Z,0.80
2022-10-21T10:12:24.110Z,0.80
2022-10-21T10:14:51.663Z,0.50
2022-10-21T10:17:29.090Z,0.97
2022-10-21T10:20:05.415Z,1.30
2022-10-21T10:22:47.992Z,0.73
2022-10-21T10:25:14.835Z,0.80
2022-10-21T10:28:08.663Z,0.87
2022-10-21T10:30:41.613Z,0.80
2022-10-21T10:33:19.950Z,1.00
2022-10-21T10:35:54.490Z,1.00
2022-10-21T10:38:40.711Z,0.93
2022-10-21T10:41:11.419Z,1.27
2022-10-21T10:43:53.873Z,1.10
2022-10-21T10:46:34.753Z,1.10
2022-10-21T10:49:12.608Z,1.10
2022-10-21T10:51:40.674Z,0.90
2022-10-21T10:54:07.484Z,1.20
2022-10-21T10:56:44.638Z,1.67
2022-10-21T10:59:17.510Z,1.10
2022-10-21T11:01:54.278Z,1.37
2022-10-21T11:04:37.693Z,1.50
2022-10-21T11:07:26.228Z,1.43
2022-10-21T11:09:59.397Z,1.37
2022-10-21T11:12:26.897Z,1.00
2022-10-21T11:14:55.951Z,1.20
2022-10-21T11:17:30.942Z,1.00
2022-10-21T11:20:41.131Z,1.27
2022-10-21T11:23:36.784Z,1.40
2022-10-21T11:26:11.684Z,1.13
2022-10-21T11:28:59.222Z,0.93
2022-10-21T11:31:59.604Z,1.20
2022-10-21T11:35:02.352Z,0.90
2022-10-21T11:37:36.977Z,1.67
2022-10-21T11:40:38.000Z,1.20
2022-10-21T11:43:43.447Z,1.23
2022-10-21T11:46:37.176Z,1.03
2022-10-21T11:49:22.402Z,1.20
2022-10-21T11:52:32.074Z,1.10
2022-10-21T11:55:17.162Z,0.97
2022-10-21T11:57:48.520Z,1.03
2022-10-21T12:00:26.143Z,1.00
2022-10-21T12:03:26.691Z,0.90
2022-10-21T12:05:57.405Z,1.20
2022-10-21T12:08:48.312Z,1.20
2022-10-21T12:11:28.635Z,1.07
2022-10-21T12:14:16.717Z,0.73
2022-10-21T12:16:44.358Z,0.80
2022-10-21T12:19:13.504Z,0.93
2022-10-21T12:21:43.698Z,0.70
2022-10-21T12:24:10.579Z,1.00
2022-10-21T12:27:19.471Z,0.93
2022-10-21T12:30:02.564Z,1.10
2022-10-21T12:33:04.629Z,0.77
2022-10-21T12:35:53.473Z,0.60
2022-10-21T12:38:40.102Z,0.60
2022-10-21T12:41:35.227Z,0.93
2022-10-21T12:44:27.354Z,0.80
2022-10-21T12:46:57.295Z,0.70
2022-10-21T12:49:36.553Z,0.90
2022-10-21T12:52:15.360Z,1.20
2022-10-21T12:54:58.643Z,0.80
2022-10-21T12:57:29.146Z,0.90
2022-10-21T13:00:31.448Z,0.93
2022-10-21T13:03:04.764Z,0.50
2022-10-21T13:05:37.846Z,0.80
2022-10-21T13:08:24.384Z,0.90
2022-10-21T13:11:06.512Z,0.80
2022-10-21T13:13:50.178Z,0.80
2022-10-21T13:16:20.287Z,0.83
2022-10-21T13:19:01.776Z,0.90
2022-10-21T13:21:39.308Z,0.80
2022-10-21T13:24:11.698Z,0.90
2022-10-21T13:26:48.739Z,0.90
2022-10-21T13:29:45.781Z,1.10
2022-10-21T13:32:15.501Z,0.67
2022-10-21T13:35:03.860Z,1.10
2022-10-21T13:37:42.378Z,0.97
2022-10-21T13:40:19.041Z,0.63
2022-10-21T13:43:00.579Z,1.77
2022-10-21T13:45:31.033Z,0.93
2022-10-21T13:48:06.805Z,0.63
2022-10-21T13:50:39.177Z,0.70
2022-10-21T13:53:30.385Z,0.70
2022-10-21T13:56:03.268Z,0.70
2022-10-21T13:58:36.232Z,0.73
2022-10-21T14:01:15.953Z,0.77
2022-10-21T14:03:44.154Z,0.57
2022-10-21T14:06:12.935Z,0.70
2022-10-21T14:08:45.414Z,0.80
2022-10-21T14:11:16.642Z,0.57
2022-10-21T14:13:43.771Z,0.40
2022-10-21T14:16:20.147Z,0.87
2022-10-21T14:18:48.181Z,0.60
2022-10-21T14:21:20.336Z,0.70
2022-10-21T14:23:47.556Z,0.63
2022-10-21T14:26:14.447Z,0.93
2022-10-21T14:28:41.849Z,1.10
2022-10-21T14:31:13.407Z,1.53
2022-10-21T14:33:45.175Z,1.20
2022-10-21T14:36:15.086Z,1.10
2022-10-21T14:38:54.348Z,0.70
2022-10-21T14:41:34.054Z,0.80
2022-10-21T14:44:14.367Z,0.70
2022-10-21T14:46:43.037Z,0.70
2022-10-21T14:49:22.643Z,0.80
2022-10-21T14:51:50.474Z,0.73
2022-10-21T14:54:26.509Z,0.83
2022-10-21T14:56:53.684Z,1.07
2022-10-21T14:59:26.306Z,0.80
2022-10-21T15:01:53.406Z,1.07
2022-10-21T15:04:40.768Z,0.70
2022-10-21T15:07:17.214Z,0.90
2022-10-21T15:10:12.490Z,0.97
2022-10-21T15:12:41.041Z,1.00
2022-10-21T15:15:51.061Z,0.90
2022-10-21T15:18:39.337Z,0.53
2022-10-21T15:21:10.269Z,0.60
2022-10-21T15:23:55.571Z,0.60
2022-10-21T15:26:41.517Z,0.70
2022-10-21T15:29:33.234Z,0.70
2022-10-21T15:32:00.941Z,1.47
2022-10-21T15:34:28.047Z,1.03
2022-10-21T15:36:55.385Z,0.60
2022-10-21T15:39:22.552Z,0.50
2022-10-21T15:41:53.686Z,0.60
2022-10-21T15:44:26.622Z,0.60
2022-10-21T15:46:59.341Z,0.70
2022-10-21T15:49:31.246Z,0.60
2022-10-21T15:51:58.071Z,0.83
2022-10-21T15:54:24.806Z,0.67
2022-10-21T15:56:54.491Z,0.57
2022-10-21T15:59:26.870Z,0.70
2022-10-21T16:01:54.233Z,0.90
2022-10-21T16:04:21.064Z,0.80
2022-10-21T16:06:50.115Z,0.90
2022-10-21T16:09:27.075Z,0.50
2022-10-21T16:12:01.002Z,0.80
2022-10-21T16:14:30.071Z,1.07
2022-10-21T16:17:00.840Z,0.80
2022-10-21T16:19:28.105Z,0.90
2022-10-21T16:21:55.682Z,0.57
2022-10-21T16:24:22.481Z,0.80
2022-10-21T16:26:49.951Z,0.80
2022-10-21T16:29:19.547Z,1.10
2022-10-21T16:31:46.437Z,0.80
2022-10-21T16:34:13.876Z,0.73
2022-10-21T16:36:41.020Z,1.00
2022-10-21T16:39:17.533Z,1.00
2022-10-21T16:41:44.350Z,0.70
2022-10-21T16:44:12.803Z,1.03
2022-10-21T16:46:42.405Z,1.80
2022-10-21T16:49:14.598Z,1.50
2022-10-21T16:51:42.939Z,0.90
2022-10-21T16:54:15.534Z,0.70
2022-10-21T16:56:44.114Z,0.90
2022-10-21T16:59:11.662Z,0.83
2022-10-21T17:01:39.188Z,0.67
2022-10-21T17:04:06.039Z,0.80
2022-10-21T17:06:33.067Z,1.40
2022-10-21T17:08:59.831Z,1.30
2022-10-21T17:11:38.165Z,1.00
2022-10-21T17:14:07.721Z,1.23
2022-10-21T17:16:34.639Z,1.20
2022-10-21T17:19:03.226Z,1.27
2022-10-21T17:21:32.752Z,1.10
2022-10-21T17:24:06.589Z,0.90
2022-10-21T17:26:43.331Z,1.23
2022-10-21T17:29:16.377Z,1.67
2022-10-21T17:31:44.465Z,1.00
2022-10-21T17:34:31.894Z,1.20
2022-10-21T17:36:59.634Z,1.10
2022-10-21T17:39:26.848Z,1.70
2022-10-21T17:41:59.617Z,1.47
2022-10-21T17:44:26.524Z,1.40
2022-10-21T17:46:54.650Z,1.37
2022-10-21T17:49:22.810Z,1.47
2022-10-21T17:52:14.379Z,1.40
2022-10-21T17:54:41.307Z,1.50
2022-10-21T17:57:08.040Z,1.30
2022-10-21T17:59:34.761Z,1.43
2022-10-21T18:02:01.596Z,1.13
2022-10-21T18:04:28.998Z,1.20
2022-10-21T18:06:55.887Z,1.10
2022-10-21T18:09:22.751Z,1.70
2022-10-21T18:11:50.004Z,1.30
2022-10-21T18:14:16.827Z,1.50
2022-10-21T18:16:43.578Z,1.63
2022-10-21T18:19:13.378Z,1.30
2022-10-21T18:21:40.311Z,1.50
2022-10-21T18:24:11.385Z,1.63
2022-10-21T18:26:39.882Z,1.30
2022-10-21T18:29:06.661Z,1.07
2022-10-21T18:31:35.785Z,1.33
2022-10-21T18:34:07.111Z,1.10
2022-10-21T18:36:34.378Z,1.73
2022-10-21T18:39:01.267Z,1.10
2022-10-21T18:41:28.568Z,1.37
2022-10-21T18:44:00.362Z,1.50
2022-10-21T18:46:28.640Z,1.57
2022-10-21T18:48:55.564Z,1.50
2022-10-21T18:51:23.988Z,1.60
2022-10-21T18:53:52.778Z,1.20
2022-10-21T18:56:22.420Z,1.90
2022-10-21T18:58:50.201Z,1.70
2022-10-21T19:01:17.813Z,1.77
2022-10-21T19:03:45.920Z,1.60
2022-10-21T19:06:19.329Z,1.40
2022-10-21T19:08:46.969Z,2.17
2022-10-21T19:11:13.802Z,1.70
2022-10-21T19:13:40.729Z,1.70
2022-10-21T19:16:15.102Z,1.50
2022-10-21T19:18:42.293Z,1.77
2022-10-21T19:21:09.798Z,1.90
2022-10-21T19:23:36.778Z,1.70
2022-10-21T19:26:08.291Z,1.63
2022-10-21T19:28:36.593Z,1.40
2022-10-21T19:31:03.448Z,1.40
2022-10-21T19:33:30.954Z,1.57
2022-10-21T19:36:02.032Z,1.80
2022-10-21T19:38:43.156Z,1.60
2022-10-21T19:41:12.906Z,1.40
2022-10-21T19:43:40.667Z,1.40
2022-10-21T19:46:11.666Z,1.40
2022-10-21T19:48:39.119Z,1.50
2022-10-21T19:51:15.138Z,1.50
2022-10-21T19:53:45.301Z,1.67
2022-10-21T19:56:13.377Z,1.47
2022-10-21T19:58:40.695Z,1.70
2022-10-21T20:01:10.479Z,1.67
2022-10-21T20:03:39.819Z,1.60
2022-10-21T20:06:08.016Z,2.30
2022-10-21T20:08:35.746Z,1.50
2022-10-21T20:11:06.021Z,2.00
2022-10-21T20:13:36.742Z,1.53
2022-10-21T20:16:05.614Z,1.83
2022-10-21T20:18:33.450Z,1.40
2022-10-21T20:21:07.348Z,2.00
2022-10-21T20:23:35.112Z,1.60
2022-10-21T20:26:02.401Z,1.63
2022-10-21T20:28:29.730Z,1.97
2022-10-21T20:31:02.962Z,1.60
2022-10-21T20:33:31.951Z,1.50
2022-10-21T20:36:02.798Z,1.90
2022-10-21T20:38:29.777Z,1.70
2022-10-21T20:41:03.069Z,1.73
2022-10-21T20:43:30.678Z,2.30
2022-10-21T20:46:06.520Z,1.73
2022-10-21T20:48:35.153Z,2.00
2022-10-21T20:51:02.650Z,1.87
2022-10-21T20:53:31.256Z,2.20
2022-10-21T20:55:59.539Z,2.30
2022-10-21T20:58:27.150Z,2.10
2022-10-21T21:00:54.142Z,2.00
2022-10-21T21:03:22.399Z,2.10
2022-10-21T21:05:49.232Z,2.20
2022-10-21T21:08:17.900Z,2.27
2022-10-21T21:11:18.120Z,2.00
2022-10-21T21:13:47.076Z,2.40
2022-10-21T21:16:19.071Z,2.00
2022-10-21T21:18:56.789Z,2.00
2022-10-21T21:21:27.082Z,1.87
2022-10-21T21:23:56.520Z,2.20
2022-10-21T21:26:25.812Z,1.80
2022-10-21T21:28:53.495Z,2.07
2022-10-21T21:31:22.140Z,2.00
2022-10-21T21:33:49.537Z,2.47
2022-10-21T21:36:18.153Z,2.10
2022-10-21T21:38:47.355Z,2.63
2022-10-21T21:41:15.304Z,1.70
2022-10-21T21:43:46.290Z,2.17
2022-10-21T21:46:13.351Z,2.03
2022-10-21T21:48:44.470Z,2.30
2022-10-21T21:51:16.846Z,1.90
2022-10-21T21:53:51.717Z,2.33
2022-10-21T21:56:20.080Z,2.03
2022-10-21T21:58:50.908Z,2.13
2022-10-21T22:01:23.393Z,2.30
2022-10-21T22:03:54.247Z,2.17
2022-10-21T22:06:24.036Z,2.30
2022-10-21T22:08:55.287Z,1.80
2022-10-21T22:11:29.672Z,1.93
2022-10-21T22:13:57.695Z,2.10
2022-10-21T22:16:34.179Z,2.50
2022-10-21T22:19:02.774Z,2.30
2022-10-21T22:21:31.751Z,2.47
2022-10-21T22:24:20.098Z,1.97
2022-10-21T22:26:50.467Z,2.43
2022-10-21T22:29:28.299Z,2.33
2022-10-21T22:31:55.459Z,2.10
2022-10-21T22:34:22.230Z,2.47
2022-10-21T22:36:49.348Z,1.93
2022-10-21T22:39:16.454Z,2.27
2022-10-21T22:41:43.727Z,1.93
2022-10-21T22:44:11.994Z,2.10
2022-10-21T22:46:39.481Z,2.43
2022-10-21T22:49:06.946Z,2.40
2022-10-21T22:51:33.979Z,2.10
2022-10-21T22:54:15.059Z,2.00
2022-10-21T22:56:47.792Z,2.33
2022-10-21T22:59:15.095Z,2.07
2022-10-21T23:01:41.887Z,2.17
2022-10-21T23:04:10.189Z,2.07
2022-10-21T23:06:37.120Z,2.27
2022-10-21T23:09:05.747Z,2.10
2022-10-21T23:11:32.927Z,1.93
2022-10-21T23:14:07.902Z,2.27
2022-10-21T23:16:36.635Z,2.47
2022-10-21T23:19:07.089Z,2.00
2022-10-21T23:21:34.473Z,2.40
2022-10-21T23:24:01.719Z,2.03
2022-10-21T23:26:28.473Z,2.33
2022-10-21T23:28:55.317Z,2.30
2022-10-21T23:31:22.180Z,2.30
2022-10-21T23:33:49.196Z,2.47
2022-10-21T23:36:15.998Z,2.67
2022-10-21T23:38:42.896Z,2.40
2022-10-21T23:41:09.581Z,2.20
2022-10-21T23:43:36.494Z,2.43
2022-10-21T23:46:03.307Z,2.17
2022-10-21T23:48:30.174Z,3.00
2022-10-21T23:50:56.977Z,2.40
2022-10-21T23:53:23.723Z,2.60
2022-10-21T23:55:50.468Z,2.30
2022-10-21T23:58:17.191Z,3.33
